sensor_id;sensor_type;location;lat;lon;timestamp;pressure;altitude;pressure_sealevel;temperature;humidity
75942;BME280;64622;46.220;19.878;2022-12-20T00:01:23;102457.56;;;-1.87;98.18
75942;BME280;64622;46.220;19.878;2022-12-20T00:03:52;102452.38;;;-1.91;98.44
75942;BME280;64622;46.220;19.878;2022-12-20T00:06:21;102446.44;;;-2.01;98.46
75942;BME280;64622;46.220;19.878;2022-12-20T00:08:59;102448.28;;;-2.06;98.65
75942;BME280;64622;46.220;19.878;2022-12-20T00:11:27;102432.50;;;-2.04;98.54
75942;BME280;64622;46.220;19.878;2022-12-20T00:13:54;102439.63;;;-2.11;98.95
75942;BME280;64622;46.220;19.878;2022-12-20T00:16:22;102436.97;;;-2.08;98.89
75942;BME280;64622;46.220;19.878;2022-12-20T00:18:52;102427.34;;;-2.09;99.01
75942;BME280;64622;46.220;19.878;2022-12-20T00:21:19;102429.03;;;-2.06;98.57
75942;BME280;64622;46.220;19.878;2022-12-20T00:23:46;102446.31;;;-1.95;98.41
75942;BME280;64622;46.220;19.878;2022-12-20T00:26:15;102439.47;;;-2.02;98.44
75942;BME280;64622;46.220;19.878;2022-12-20T00:28:43;102433.19;;;-1.95;97.95
75942;BME280;64622;46.220;19.878;2022-12-20T00:31:12;102440.81;;;-1.81;97.35
75942;BME280;64622;46.220;19.878;2022-12-20T00:33:40;102440.81;;;-1.81;97.47
75942;BME280;64622;46.220;19.878;2022-12-20T00:36:08;102441.81;;;-1.88;97.94
75942;BME280;64622;46.220;19.878;2022-12-20T00:38:35;102433.91;;;-1.85;97.55
75942;BME280;64622;46.220;19.878;2022-12-20T00:41:09;102446.03;;;-1.80;97.40
75942;BME280;64622;46.220;19.878;2022-12-20T00:43:36;102445.97;;;-1.75;97.10
75942;BME280;64622;46.220;19.878;2022-12-20T00:46:05;102452.12;;;-1.77;97.25
75942;BME280;64622;46.220;19.878;2022-12-20T00:48:32;102446.91;;;-1.79;97.47
75942;BME280;64622;46.220;19.878;2022-12-20T00:51:01;102447.59;;;-1.71;96.92
75942;BME280;64622;46.220;19.878;2022-12-20T00:53:29;102444.22;;;-1.76;97.04
75942;BME280;64622;46.220;19.878;2022-12-20T00:55:56;102449.44;;;-1.75;97.11
75942;BME280;64622;46.220;19.878;2022-12-20T00:58:24;102452.16;;;-1.79;97.18
75942;BME280;64622;46.220;19.878;2022-12-20T01:00:51;102437.41;;;-1.86;97.18
75942;BME280;64622;46.220;19.878;2022-12-20T01:03:18;102435.62;;;-1.84;97.20
75942;BME280;64622;46.220;19.878;2022-12-20T01:05:52;102434.78;;;-1.86;97.14
75942;BME280;64622;46.220;19.878;2022-12-20T01:08:19;102441.56;;;-1.75;96.90
75942;BME280;64622;46.220;19.878;2022-12-20T01:10:56;102433.03;;;-1.86;97.42
75942;BME280;64622;46.220;19.878;2022-12-20T01:13:25;102421.56;;;-1.80;96.59
75942;BME280;64622;46.220;19.878;2022-12-20T01:15:51;102437.34;;;-1.83;97.02
75942;BME280;64622;46.220;19.878;2022-12-20T01:18:17;102426.87;;;-1.85;96.82
75942;BME280;64622;46.220;19.878;2022-12-20T01:20:44;102430.50;;;-1.90;97.23
75942;BME280;64622;46.220;19.878;2022-12-20T01:23:11;102447.72;;;-1.76;96.56
75942;BME280;64622;46.220;19.878;2022-12-20T01:25:37;102446.97;;;-1.82;96.56
75942;BME280;64622;46.220;19.878;2022-12-20T01:28:05;102437.66;;;-2.00;97.64
75942;BME280;64622;46.220;19.878;2022-12-20T01:30:32;102444.63;;;-1.99;97.89
75942;BME280;64622;46.220;19.878;2022-12-20T01:32:58;102447.25;;;-1.99;97.77
75942;BME280;64622;46.220;19.878;2022-12-20T01:35:25;102446.28;;;-1.93;97.03
75942;BME280;64622;46.220;19.878;2022-12-20T01:37:51;102452.66;;;-2.06;97.77
75942;BME280;64622;46.220;19.878;2022-12-20T01:40:18;102449.19;;;-2.07;98.14
75942;BME280;64622;46.220;19.878;2022-12-20T01:42:48;102447.37;;;-2.05;97.71
75942;BME280;64622;46.220;19.878;2022-12-20T01:45:24;102439.72;;;-2.15;98.04
75942;BME280;64622;46.220;19.878;2022-12-20T01:47:52;102424.00;;;-2.17;97.94
75942;BME280;64622;46.220;19.878;2022-12-20T01:50:20;102442.41;;;-2.21;98.53
75942;BME280;64622;46.220;19.878;2022-12-20T01:52:47;102412.78;;;-2.25;98.62
75942;BME280;64622;46.220;19.878;2022-12-20T01:55:22;102407.53;;;-2.26;98.49
75942;BME280;64622;46.220;19.878;2022-12-20T02:00:18;102414.53;;;-2.25;98.64
75942;BME280;64622;46.220;19.878;2022-12-20T02:02:46;102405.00;;;-2.31;98.84
75942;BME280;64622;46.220;19.878;2022-12-20T02:05:16;102395.53;;;-2.37;99.02
75942;BME280;64622;46.220;19.878;2022-12-20T02:07:46;102379.84;;;-2.39;98.87
75942;BME280;64622;46.220;19.878;2022-12-20T02:10:21;102389.31;;;-2.32;98.72
75942;BME280;64622;46.220;19.878;2022-12-20T02:12:51;102395.44;;;-2.33;98.90
75942;BME280;64622;46.220;19.878;2022-12-20T02:21:18;102385.84;;;-2.33;98.33
75942;BME280;64622;46.220;19.878;2022-12-20T02:27:09;102369.28;;;-2.36;98.61
75942;BME280;64622;46.220;19.878;2022-12-20T02:30:14;102363.09;;;-2.32;98.41
75942;BME280;64622;46.220;19.878;2022-12-20T02:33:01;102365.72;;;-2.34;98.45
75942;BME280;64622;46.220;19.878;2022-12-20T02:35:32;102350.88;;;-2.33;98.50
75942;BME280;64622;46.220;19.878;2022-12-20T02:38:02;102337.91;;;-2.41;98.47
75942;BME280;64622;46.220;19.878;2022-12-20T02:40:35;102333.53;;;-2.40;98.73
75942;BME280;64622;46.220;19.878;2022-12-20T02:43:06;102335.13;;;-2.33;98.46
75942;BME280;64622;46.220;19.878;2022-12-20T02:45:56;102337.75;;;-2.33;98.72
75942;BME280;64622;46.220;19.878;2022-12-20T02:48:29;102347.31;;;-2.31;98.35
75942;BME280;64622;46.220;19.878;2022-12-20T02:50:59;102349.03;;;-2.28;98.89
75942;BME280;64622;46.220;19.878;2022-12-20T02:53:28;102349.94;;;-2.31;98.38
75942;BME280;64622;46.220;19.878;2022-12-20T02:56:03;102355.94;;;-2.22;98.26
75942;BME280;64622;46.220;19.878;2022-12-20T02:59:05;102356.75;;;-2.21;98.00
75942;BME280;64622;46.220;19.878;2022-12-20T03:01:32;102351.53;;;-2.22;98.94
75942;BME280;64622;46.220;19.878;2022-12-20T03:04:00;102348.00;;;-2.21;99.04
75942;BME280;64622;46.220;19.878;2022-12-20T03:06:28;102337.56;;;-2.22;98.00
75942;BME280;64622;46.220;19.878;2022-12-20T03:08:56;102349.66;;;-2.14;97.76
75942;BME280;64622;46.220;19.878;2022-12-20T03:11:24;102345.37;;;-2.20;97.76
75942;BME280;64622;46.220;19.878;2022-12-20T03:13:51;102353.09;;;-2.14;97.53
75942;BME280;64622;46.220;19.878;2022-12-20T03:16:17;102346.00;;;-2.09;97.37
75942;BME280;64622;46.220;19.878;2022-12-20T03:18:44;102341.75;;;-2.12;97.46
75942;BME280;64622;46.220;19.878;2022-12-20T03:21:11;102332.09;;;-2.11;98.92
75942;BME280;64622;46.220;19.878;2022-12-20T03:23:38;102339.16;;;-2.14;98.38
75942;BME280;64622;46.220;19.878;2022-12-20T03:26:05;102330.38;;;-2.13;98.02
75942;BME280;64622;46.220;19.878;2022-12-20T03:28:32;102341.75;;;-2.12;97.67
75942;BME280;64622;46.220;19.878;2022-12-20T03:30:59;102321.69;;;-2.15;97.58
75942;BME280;64622;46.220;19.878;2022-12-20T03:33:26;102319.00;;;-2.14;97.69
75942;BME280;64622;46.220;19.878;2022-12-20T03:35:53;102315.53;;;-2.12;97.40
75942;BME280;64622;46.220;19.878;2022-12-20T03:38:20;102308.53;;;-2.14;97.80
75942;BME280;64622;46.220;19.878;2022-12-20T03:40:47;102314.66;;;-2.13;97.50
75942;BME280;64622;46.220;19.878;2022-12-20T03:43:14;102305.84;;;-2.11;97.88
75942;BME280;64622;46.220;19.878;2022-12-20T03:45:41;102304.09;;;-2.10;97.78
75942;BME280;64622;46.220;19.878;2022-12-20T03:48:08;102311.97;;;-2.10;97.55
75942;BME280;64622;46.220;19.878;2022-12-20T03:50:34;102295.41;;;-2.14;98.06
75942;BME280;64622;46.220;19.878;2022-12-20T03:53:02;102292.75;;;-2.12;97.53
75942;BME280;64622;46.220;19.878;2022-12-20T03:55:29;102300.59;;;-2.09;97.38
75942;BME280;64622;46.220;19.878;2022-12-20T03:57:55;102289.22;;;-2.11;97.39
75942;BME280;64622;46.220;19.878;2022-12-20T04:00:22;102297.94;;;-2.08;97.17
75942;BME280;64622;46.220;19.878;2022-12-20T04:02:50;102290.75;;;-2.00;97.58
75942;BME280;64622;46.220;19.878;2022-12-20T04:05:17;102283.12;;;-2.10;97.08
75942;BME280;64622;46.220;19.878;2022-12-20T04:07:44;102288.22;;;-2.03;97.16
75942;BME280;64622;46.220;19.878;2022-12-20T04:10:12;102290.00;;;-2.06;96.87
75942;BME280;64622;46.220;19.878;2022-12-20T04:12:39;102286.53;;;-2.07;96.85
75942;BME280;64622;46.220;19.878;2022-12-20T04:15:07;102289.97;;;-2.03;96.71
75942;BME280;64622;46.220;19.878;2022-12-20T04:17:34;102278.53;;;-2.01;96.41
75942;BME280;64622;46.220;19.878;2022-12-20T04:20:02;102301.16;;;-1.95;96.39
75942;BME280;64622;46.220;19.878;2022-12-20T04:22:49;102289.03;;;-2.01;96.47
75942;BME280;64622;46.220;19.878;2022-12-20T04:25:19;102287.31;;;-2.02;96.87
75942;BME280;64622;46.220;19.878;2022-12-20T04:27:46;102289.91;;;-2.00;96.71
75942;BME280;64622;46.220;19.878;2022-12-20T04:30:17;102284.59;;;-1.99;97.16
75942;BME280;64622;46.220;19.878;2022-12-20T04:32:43;102281.03;;;-1.95;96.13
75942;BME280;64622;46.220;19.878;2022-12-20T04:35:10;102293.12;;;-1.87;96.02
75942;BME280;64622;46.220;19.878;2022-12-20T04:37:38;102298.53;;;-1.95;96.66
75942;BME280;64622;46.220;19.878;2022-12-20T04:40:05;102309.75;;;-1.89;96.66
75942;BME280;64622;46.220;19.878;2022-12-20T04:42:33;102306.16;;;-1.85;95.56
75942;BME280;64622;46.220;19.878;2022-12-20T04:45:00;102300.94;;;-1.85;95.49
75942;BME280;64622;46.220;19.878;2022-12-20T04:47:27;102296.59;;;-1.86;94.98
75942;BME280;64622;46.220;19.878;2022-12-20T04:49:54;102306.94;;;-1.80;95.04
75942;BME280;64622;46.220;19.878;2022-12-20T04:52:21;102303.41;;;-1.79;94.90
75942;BME280;64622;46.220;19.878;2022-12-20T04:55:07;102305.22;;;-1.81;94.98
75942;BME280;64622;46.220;19.878;2022-12-20T04:57:34;102289.50;;;-1.82;94.87
75942;BME280;64622;46.220;19.878;2022-12-20T05:00:02;102293.91;;;-1.83;95.32
75942;BME280;64622;46.220;19.878;2022-12-20T05:02:29;102285.19;;;-1.85;95.54
75942;BME280;64622;46.220;19.878;2022-12-20T05:04:56;102287.00;;;-1.87;95.20
75942;BME280;64622;46.220;19.878;2022-12-20T05:07:23;102282.69;;;-1.91;95.21
75942;BME280;64622;46.220;19.878;2022-12-20T05:09:55;102268.91;;;-2.00;96.55
75942;BME280;64622;46.220;19.878;2022-12-20T05:12:21;102275.91;;;-2.01;95.78
75942;BME280;64622;46.220;19.878;2022-12-20T05:14:48;102274.25;;;-2.06;95.78
75942;BME280;64622;46.220;19.878;2022-12-20T05:17:16;102271.56;;;-2.02;96.11
75942;BME280;64622;46.220;19.878;2022-12-20T05:19:43;102265.56;;;-2.07;96.11
75942;BME280;64622;46.220;19.878;2022-12-20T05:22:10;102256.91;;;-2.12;96.50
75942;BME280;64622;46.220;19.878;2022-12-20T05:24:57;102257.91;;;-2.19;96.80
75942;BME280;64622;46.220;19.878;2022-12-20T05:27:43;102263.28;;;-2.23;97.01
75942;BME280;64622;46.220;19.878;2022-12-20T05:30:10;102263.25;;;-2.22;97.04
75942;BME280;64622;46.220;19.878;2022-12-20T05:32:37;102245.94;;;-2.30;97.16
75942;BME280;64622;46.220;19.878;2022-12-20T05:35:04;102251.22;;;-2.32;97.31
75942;BME280;64622;46.220;19.878;2022-12-20T05:37:31;102253.03;;;-2.35;97.28
75942;BME280;64622;46.220;19.878;2022-12-20T05:40:03;102270.47;;;-2.33;97.78
75942;BME280;64622;46.220;19.878;2022-12-20T05:42:31;102255.09;;;-2.51;98.05
75942;BME280;64622;46.220;19.878;2022-12-20T05:44:57;102249.88;;;-2.52;97.78
75942;BME280;64622;46.220;19.878;2022-12-20T05:47:24;102248.09;;;-2.50;97.93
75942;BME280;64622;46.220;19.878;2022-12-20T05:49:51;102249.94;;;-2.55;98.23
75942;BME280;64622;46.220;19.878;2022-12-20T05:52:18;102246.59;;;-2.65;98.61
75942;BME280;64622;46.220;19.878;2022-12-20T05:54:45;102272.78;;;-2.62;98.43
75942;BME280;64622;46.220;19.878;2022-12-20T05:57:12;102262.47;;;-2.72;98.47
75942;BME280;64622;46.220;19.878;2022-12-20T05:59:41;102269.47;;;-2.71;98.80
75942;BME280;64622;46.220;19.878;2022-12-20T06:02:08;102254.75;;;-2.80;98.87
75942;BME280;64622;46.220;19.878;2022-12-20T06:04:37;102262.66;;;-2.81;98.71
75942;BME280;64622;46.220;19.878;2022-12-20T06:07:09;102251.44;;;-2.89;99.07
75942;BME280;64622;46.220;19.878;2022-12-20T06:09:36;102253.13;;;-2.85;99.41
75942;BME280;64622;46.220;19.878;2022-12-20T06:12:04;102249.59;;;-2.83;100.00
75942;BME280;64622;46.220;19.878;2022-12-20T06:14:31;102255.66;;;-2.82;100.00
75942;BME280;64622;46.220;19.878;2022-12-20T06:16:58;102235.81;;;-2.93;100.00
75942;BME280;64622;46.220;19.878;2022-12-20T06:19:25;102247.00;;;-2.86;100.00
75942;BME280;64622;46.220;19.878;2022-12-20T06:21:53;102239.16;;;-2.86;99.86
75942;BME280;64622;46.220;19.878;2022-12-20T06:24:21;102254.84;;;-2.83;99.44
75942;BME280;64622;46.220;19.878;2022-12-20T06:26:51;102261.81;;;-2.83;99.83
75942;BME280;64622;46.220;19.878;2022-12-20T06:29:18;102244.47;;;-2.88;99.91
75942;BME280;64622;46.220;19.878;2022-12-20T06:31:47;102261.94;;;-2.89;99.81
75942;BME280;64622;46.220;19.878;2022-12-20T06:34:14;102261.13;;;-2.92;99.38
75942;BME280;64622;46.220;19.878;2022-12-20T06:36:41;102273.16;;;-2.81;99.71
75942;BME280;64622;46.220;19.878;2022-12-20T06:39:09;102258.38;;;-2.87;99.48
75942;BME280;64622;46.220;19.878;2022-12-20T06:41:36;102256.69;;;-2.89;99.79
75942;BME280;64622;46.220;19.878;2022-12-20T06:44:03;102278.44;;;-2.84;99.40
75942;BME280;64622;46.220;19.878;2022-12-20T06:46:29;102276.75;;;-2.88;99.47
75942;BME280;64622;46.220;19.878;2022-12-20T06:48:57;102288.00;;;-2.83;99.45
75942;BME280;64622;46.220;19.878;2022-12-20T06:51:24;102295.81;;;-2.78;99.81
75942;BME280;64622;46.220;19.878;2022-12-20T06:53:51;102288.78;;;-2.78;100.00
75942;BME280;64622;46.220;19.878;2022-12-20T06:56:17;102290.34;;;-2.68;100.00
75942;BME280;64622;46.220;19.878;2022-12-20T06:58:44;102305.97;;;-2.62;100.00
75942;BME280;64622;46.220;19.878;2022-12-20T07:01:12;102300.69;;;-2.59;100.00
75942;BME280;64622;46.220;19.878;2022-12-20T07:03:38;102303.09;;;-2.49;99.81
75942;BME280;64622;46.220;19.878;2022-12-20T07:06:05;102304.50;;;-2.31;99.80
75942;BME280;64622;46.220;19.878;2022-12-20T07:08:32;102293.97;;;-2.28;99.55
75942;BME280;64622;46.220;19.878;2022-12-20T07:11:03;102303.44;;;-2.21;99.52
75942;BME280;64622;46.220;19.878;2022-12-20T07:13:31;102304.16;;;-2.13;99.42
75942;BME280;64622;46.220;19.878;2022-12-20T07:16:02;102298.75;;;-2.06;99.21
75942;BME280;64622;46.220;19.878;2022-12-20T07:18:29;102306.34;;;-1.94;98.44
75942;BME280;64622;46.220;19.878;2022-12-20T07:21:00;102291.37;;;-1.89;99.04
75942;BME280;64622;46.220;19.878;2022-12-20T07:23:28;102286.03;;;-1.83;98.71
75942;BME280;64622;46.220;19.878;2022-12-20T07:25:55;102269.38;;;-1.82;98.70
75942;BME280;64622;46.220;19.878;2022-12-20T07:28:23;102279.62;;;-1.71;98.73
75942;BME280;64622;46.220;19.878;2022-12-20T07:30:50;102258.75;;;-1.76;98.47
75942;BME280;64622;46.220;19.878;2022-12-20T07:33:17;102263.97;;;-1.74;98.09
75942;BME280;64622;46.220;19.878;2022-12-20T07:35:43;102244.72;;;-1.75;98.08
75942;BME280;64622;46.220;19.878;2022-12-20T07:38:12;102251.56;;;-1.67;97.89
75942;BME280;64622;46.220;19.878;2022-12-20T07:40:40;102247.72;;;-1.53;96.98
75942;BME280;64622;46.220;19.878;2022-12-20T07:43:10;102258.06;;;-1.47;97.08
75942;BME280;64622;46.220;19.878;2022-12-20T07:45:37;102236.84;;;-1.37;96.73
75942;BME280;64622;46.220;19.878;2022-12-20T07:48:04;102231.47;;;-1.34;96.68
75942;BME280;64622;46.220;19.878;2022-12-20T07:50:32;102239.06;;;-1.20;96.54
75942;BME280;64622;46.220;19.878;2022-12-20T07:53:01;102227.72;;;-1.24;95.92
75942;BME280;64622;46.220;19.878;2022-12-20T07:55:29;102223.72;;;-1.03;94.29
75942;BME280;64622;46.220;19.878;2022-12-20T07:58:01;102214.62;;;-0.90;93.94
75942;BME280;64622;46.220;19.878;2022-12-20T08:00:30;102212.47;;;-0.76;92.80
75942;BME280;64622;46.220;19.878;2022-12-20T08:05:27;102210.47;;;-0.67;91.54
75942;BME280;64622;46.220;19.878;2022-12-20T08:07:55;102196.88;;;-0.82;90.14
75942;BME280;64622;46.220;19.878;2022-12-20T08:10:27;102188.28;;;-0.57;90.66
75942;BME280;64622;46.220;19.878;2022-12-20T08:12:54;102194.69;;;-0.67;89.29
75942;BME280;64622;46.220;19.878;2022-12-20T08:15:21;102181.84;;;-0.47;90.38
75942;BME280;64622;46.220;19.878;2022-12-20T08:17:48;102191.97;;;-0.33;90.25
75942;BME280;64622;46.220;19.878;2022-12-20T08:20:16;102188.78;;;-0.44;88.58
75942;BME280;64622;46.220;19.878;2022-12-20T08:22:43;102193.63;;;-0.29;88.86
75942;BME280;64622;46.220;19.878;2022-12-20T08:25:11;102192.56;;;-0.24;88.18
75942;BME280;64622;46.220;19.878;2022-12-20T08:27:37;102183.44;;;-0.12;88.52
75942;BME280;64622;46.220;19.878;2022-12-20T08:30:05;102189.31;;;-0.03;86.94
75942;BME280;64622;46.220;19.878;2022-12-20T08:32:33;102199.28;;;0.14;86.09
75942;BME280;64622;46.220;19.878;2022-12-20T08:35:00;102185.28;;;0.13;85.81
75942;BME280;64622;46.220;19.878;2022-12-20T08:37:26;102189.31;;;-0.03;85.66
75942;BME280;64622;46.220;19.878;2022-12-20T08:39:54;102190.09;;;0.28;83.25
75942;BME280;64622;46.220;19.878;2022-12-20T08:42:21;102192.16;;;0.17;83.68
75942;BME280;64622;46.220;19.878;2022-12-20T08:44:47;102194.06;;;0.40;82.43
75942;BME280;64622;46.220;19.878;2022-12-20T08:47:14;102183.03;;;0.29;83.15
75942;BME280;64622;46.220;19.878;2022-12-20T08:49:40;102192.31;;;0.40;82.85
75942;BME280;64622;46.220;19.878;2022-12-20T08:52:07;102205.63;;;0.36;83.14
75942;BME280;64622;46.220;19.878;2022-12-20T08:54:34;102194.47;;;0.28;82.38
75942;BME280;64622;46.220;19.878;2022-12-20T08:57:00;102190.63;;;0.38;83.55
75942;BME280;64622;46.220;19.878;2022-12-20T08:59:27;102194.94;;;0.13;83.99
75942;BME280;64622;46.220;19.878;2022-12-20T09:01:54;102192.47;;;-0.21;85.15
75942;BME280;64622;46.220;19.878;2022-12-20T09:04:21;102203.47;;;-0.07;85.36
75942;BME280;64622;46.220;19.878;2022-12-20T09:06:48;102203.50;;;-0.08;84.63
75942;BME280;64622;46.220;19.878;2022-12-20T09:09:14;102186.41;;;0.05;83.87
75942;BME280;64622;46.220;19.878;2022-12-20T09:11:41;102186.25;;;0.38;82.54
75942;BME280;64622;46.220;19.878;2022-12-20T09:14:08;102191.59;;;0.35;81.41
75942;BME280;64622;46.220;19.878;2022-12-20T09:16:35;102172.53;;;0.27;81.12
75942;BME280;64622;46.220;19.878;2022-12-20T09:19:02;102194.34;;;0.84;81.14
75942;BME280;64622;46.220;19.878;2022-12-20T09:21:29;102178.31;;;1.15;78.80
75942;BME280;64622;46.220;19.878;2022-12-20T09:23:56;102182.66;;;0.67;80.57
75942;BME280;64622;46.220;19.878;2022-12-20T09:26:23;102178.34;;;0.64;80.41
75942;BME280;64622;46.220;19.878;2022-12-20T09:28:51;102160.91;;;0.60;80.14
75942;BME280;64622;46.220;19.878;2022-12-20T09:31:20;102158.81;;;0.96;79.25
75942;BME280;64622;46.220;19.878;2022-12-20T09:33:48;102143.47;;;0.82;79.95
75942;BME280;64622;46.220;19.878;2022-12-20T09:36:17;102155.22;;;0.72;79.89
75942;BME280;64622;46.220;19.878;2022-12-20T09:38:45;102149.00;;;1.24;78.43
75942;BME280;64622;46.220;19.878;2022-12-20T09:41:32;102138.75;;;0.92;78.84
75942;BME280;64622;46.220;19.878;2022-12-20T09:44:06;102148.09;;;1.25;78.82
75942;BME280;64622;46.220;19.878;2022-12-20T09:46:38;102140.31;;;1.68;76.95
75942;BME280;64622;46.220;19.878;2022-12-20T09:49:09;102161.50;;;1.19;77.39
75942;BME280;64622;46.220;19.878;2022-12-20T09:54:46;102160.38;;;1.49;75.60
75942;BME280;64622;46.220;19.878;2022-12-20T09:57:23;102158.34;;;1.32;75.33
75942;BME280;64622;46.220;19.878;2022-12-20T09:59:55;102154.66;;;1.84;72.83
75942;BME280;64622;46.220;19.878;2022-12-20T10:02:25;102150.19;;;1.63;74.10
75942;BME280;64622;46.220;19.878;2022-12-20T10:04:52;102136.88;;;1.43;74.17
75942;BME280;64622;46.220;19.878;2022-12-20T10:15:59;102110.44;;;1.89;72.93
75942;BME280;64622;46.220;19.878;2022-12-20T10:20:59;102094.81;;;1.61;73.50
75942;BME280;64622;46.220;19.878;2022-12-20T10:26:16;102090.13;;;2.12;71.91
75942;BME280;64622;46.220;19.878;2022-12-20T10:28:43;102081.56;;;2.27;71.60
75942;BME280;64622;46.220;19.878;2022-12-20T10:31:12;102069.44;;;2.23;71.56
75942;BME280;64622;46.220;19.878;2022-12-20T10:33:40;102067.06;;;1.96;72.44
75942;BME280;64622;46.220;19.878;2022-12-20T10:36:30;102078.44;;;2.39;72.00
75942;BME280;64622;46.220;19.878;2022-12-20T10:39:00;102068.94;;;2.55;70.97
75942;BME280;64622;46.220;19.878;2022-12-20T10:41:33;102065.19;;;2.41;72.11
75942;BME280;64622;46.220;19.878;2022-12-20T10:44:27;102060.47;;;2.67;70.49
75942;BME280;64622;46.220;19.878;2022-12-20T10:46:58;102074.94;;;2.39;71.12
75942;BME280;64622;46.220;19.878;2022-12-20T10:49:31;102064.03;;;2.05;71.15
75942;BME280;64622;46.220;19.878;2022-12-20T10:52:02;102060.19;;;2.13;71.32
75942;BME280;64622;46.220;19.878;2022-12-20T10:54:38;102064.41;;;2.37;71.43
75942;BME280;64622;46.220;19.878;2022-12-20T10:59:51;102067.22;;;2.13;70.43
75942;BME280;64622;46.220;19.878;2022-12-20T11:02:38;102037.13;;;2.17;70.79
75942;BME280;64622;46.220;19.878;2022-12-20T11:07:35;102037.81;;;2.42;71.14
75942;BME280;64622;46.220;19.878;2022-12-20T11:10:27;102027.22;;;3.02;69.23
75942;BME280;64622;46.220;19.878;2022-12-20T11:12:56;102012.72;;;2.52;70.00
75942;BME280;64622;46.220;19.878;2022-12-20T11:15:31;102010.19;;;2.49;69.42
75942;BME280;64622;46.220;19.878;2022-12-20T11:31:51;102001.00;;;2.57;68.17
75942;BME280;64622;46.220;19.878;2022-12-20T11:37:22;102001.91;;;2.76;67.53
75942;BME280;64622;46.220;19.878;2022-12-20T11:51:00;101994.00;;;2.95;68.70
75942;BME280;64622;46.220;19.878;2022-12-20T11:53:35;101990.00;;;2.86;68.58
75942;BME280;64622;46.220;19.878;2022-12-20T11:56:11;101975.31;;;3.18;68.19
75942;BME280;64622;46.220;19.878;2022-12-20T11:58:52;101981.38;;;3.20;67.39
75942;BME280;64622;46.220;19.878;2022-12-20T12:01:26;101973.31;;;3.04;67.44
75942;BME280;64622;46.220;19.878;2022-12-20T12:04:05;101970.00;;;3.36;67.16
75942;BME280;64622;46.220;19.878;2022-12-20T12:06:40;101979.59;;;3.02;67.54
75942;BME280;64622;46.220;19.878;2022-12-20T12:11:54;101966.25;;;2.06;71.11
75942;BME280;64622;46.220;19.878;2022-12-20T12:17:06;101971.69;;;2.03;72.62
75942;BME280;64622;46.220;19.878;2022-12-20T12:19:38;101965.94;;;2.14;72.81
75942;BME280;64622;46.220;19.878;2022-12-20T12:22:15;101950.91;;;2.16;71.64
75942;BME280;64622;46.220;19.878;2022-12-20T12:24:51;101945.63;;;2.36;71.85
75942;BME280;64622;46.220;19.878;2022-12-20T12:27:25;101939.19;;;2.41;70.22
75942;BME280;64622;46.220;19.878;2022-12-20T12:29:53;101948.75;;;2.82;69.69
75942;BME280;64622;46.220;19.878;2022-12-20T12:43:48;101927.63;;;2.44;70.95
75942;BME280;64622;46.220;19.878;2022-12-20T12:46:21;101925.06;;;2.61;70.82
75942;BME280;64622;46.220;19.878;2022-12-20T12:51:38;101924.87;;;2.65;70.10
75942;BME280;64622;46.220;19.878;2022-12-20T12:54:20;101912.63;;;2.83;69.77
75942;BME280;64622;46.220;19.878;2022-12-20T12:56:49;101922.66;;;2.93;68.55
75942;BME280;64622;46.220;19.878;2022-12-20T13:09:52;101924.06;;;2.25;70.66
75942;BME280;64622;46.220;19.878;2022-12-20T13:17:53;101900.25;;;2.06;71.65
75942;BME280;64622;46.220;19.878;2022-12-20T13:20:33;101892.81;;;1.96;72.22
75942;BME280;64622;46.220;19.878;2022-12-20T13:25:35;101901.84;;;2.10;71.36
75942;BME280;64622;46.220;19.878;2022-12-20T13:30:47;101888.63;;;2.30;70.44
75942;BME280;64622;46.220;19.878;2022-12-20T13:33:45;101887.34;;;2.39;70.65
75942;BME280;64622;46.220;19.878;2022-12-20T13:44:02;101894.00;;;2.47;70.50
75942;BME280;64622;46.220;19.878;2022-12-20T13:46:46;101904.72;;;2.44;71.27
75942;BME280;64622;46.220;19.878;2022-12-20T13:49:23;101890.97;;;2.36;71.29
75942;BME280;64622;46.220;19.878;2022-12-20T13:54:41;101900.78;;;2.14;72.87
75942;BME280;64622;46.220;19.878;2022-12-20T13:57:14;101895.78;;;2.08;72.86
75942;BME280;64622;46.220;19.878;2022-12-20T13:59:46;101901.50;;;1.98;73.51
75942;BME280;64622;46.220;19.878;2022-12-20T14:02:23;101910.34;;;1.97;73.83
75942;BME280;64622;46.220;19.878;2022-12-20T14:05:05;101904.34;;;1.93;73.90
75942;BME280;64622;46.220;19.878;2022-12-20T14:07:33;101907.84;;;1.94;74.20
75942;BME280;64622;46.220;19.878;2022-12-20T14:10:03;101893.53;;;1.99;74.84
75942;BME280;64622;46.220;19.878;2022-12-20T14:12:44;101904.81;;;2.03;74.71
75942;BME280;64622;46.220;19.878;2022-12-20T14:17:47;101899.72;;;1.78;75.25
75942;BME280;64622;46.220;19.878;2022-12-20T14:20:16;101895.50;;;1.74;75.96
75942;BME280;64622;46.220;19.878;2022-12-20T14:22:53;101901.69;;;1.73;75.80
75942;BME280;64622;46.220;19.878;2022-12-20T14:25:30;101891.69;;;1.60;76.56
75942;BME280;64622;46.220;19.878;2022-12-20T14:27:57;101882.59;;;1.47;76.82
75942;BME280;64622;46.220;19.878;2022-12-20T14:30:30;101880.22;;;1.41;77.60
75942;BME280;64622;46.220;19.878;2022-12-20T14:32:57;101876.12;;;1.32;77.86
75942;BME280;64622;46.220;19.878;2022-12-20T14:35:25;101869.53;;;1.22;78.29
75942;BME280;64622;46.220;19.878;2022-12-20T14:37:55;101878.50;;;1.18;78.66
75942;BME280;64622;46.220;19.878;2022-12-20T14:40:22;101869.31;;;1.07;79.19
75942;BME280;64622;46.220;19.878;2022-12-20T14:42:49;101880.16;;;0.99;79.66
75942;BME280;64622;46.220;19.878;2022-12-20T14:53:01;101865.53;;;0.69;81.44
75942;BME280;64622;46.220;19.878;2022-12-20T14:55:38;101853.56;;;0.61;81.55
75942;BME280;64622;46.220;19.878;2022-12-20T14:58:30;101851.03;;;0.58;81.89
75942;BME280;64622;46.220;19.878;2022-12-20T15:01:01;101863.91;;;0.65;81.78
75942;BME280;64622;46.220;19.878;2022-12-20T15:03:28;101856.13;;;0.62;81.76